createdAt,value
2022-11-07T00:01:51.765Z,63.20
2022-11-07T00:04:18.817Z,67.05
2022-11-07T00:06:46.832Z,60.13
2022-11-07T00:09:14.223Z,65.20
2022-11-07T00:11:41.174Z,69.93
2022-11-07T00:14:08.240Z,61.58
2022-11-07T00:16:35.592Z,61.50
2022-11-07T00:19:02.582Z,65.80
2022-11-07T00:21:29.543Z,66.38
2022-11-07T00:23:56.610Z,60.25
2022-11-07T00:26:23.593Z,50.75
2022-11-07T00:28:50.744Z,65.00
2022-11-07T00:31:18.722Z,61.42
2022-11-07T00:33:47.640Z,53.13
2022-11-07T00:36:26.727Z,64.57
2022-11-07T00:38:55.804Z,65.78
2022-11-07T00:41:23.221Z,61.55
2022-11-07T00:43:50.431Z,70.05
2022-11-07T00:46:18.371Z,69.03
2022-11-07T00:48:46.260Z,60.83
2022-11-07T00:51:22.953Z,62.00
2022-11-07T00:53:50.526Z,57.75
2022-11-07T00:56:21.483Z,63.65
2022-11-07T00:58:48.896Z,71.35
2022-11-07T01:01:20.415Z,69.50
2022-11-07T01:04:08.991Z,67.72
2022-11-07T01:06:38.752Z,59.08
2022-11-07T01:09:08.604Z,58.08
2022-11-07T01:11:38.145Z,69.15
2022-11-07T01:14:05.441Z,56.05
2022-11-07T01:16:35.811Z,56.25
2022-11-07T01:19:04.273Z,64.05
2022-11-07T01:21:31.470Z,58.47
2022-11-07T01:23:58.587Z,60.47
2022-11-07T01:26:25.552Z,51.53
2022-11-07T01:28:52.529Z,62.05
2022-11-07T01:31:19.554Z,61.83
2022-11-07T01:33:46.908Z,56.63
2022-11-07T01:36:16.887Z,63.05
2022-11-07T01:38:46.561Z,60.67
2022-11-07T01:41:21.583Z,54.08
2022-11-07T01:43:51.524Z,73.22
2022-11-07T01:46:19.471Z,69.30
2022-11-07T01:48:59.570Z,58.58
2022-11-07T01:51:28.592Z,59.83
2022-11-07T01:53:56.447Z,68.10
2022-11-07T01:56:28.334Z,66.10
2022-11-07T01:58:56.826Z,68.97
2022-11-07T02:01:24.092Z,54.83
2022-11-07T02:03:52.434Z,64.15
2022-11-07T02:06:36.044Z,54.60
2022-11-07T02:09:03.167Z,61.63
2022-11-07T02:11:30.295Z,66.63
2022-11-07T02:13:57.492Z,57.67
2022-11-07T02:16:24.487Z,60.60
2022-11-07T02:18:51.626Z,55.35
2022-11-07T02:21:45.225Z,62.65
2022-11-07T02:24:35.857Z,66.07
2022-11-07T02:27:08.523Z,52.50
2022-11-07T02:29:37.294Z,60.83
2022-11-07T02:32:10.383Z,58.45
2022-11-07T02:34:37.806Z,53.38
2022-11-07T02:37:10.535Z,61.45
2022-11-07T02:39:38.116Z,51.90
2022-11-07T02:42:07.005Z,59.28
2022-11-07T02:44:34.481Z,61.47
2022-11-07T02:47:01.759Z,55.50
2022-11-07T02:49:28.804Z,64.05
2022-11-07T02:51:55.901Z,63.72
2022-11-07T02:54:23.097Z,57.05
2022-11-07T02:56:50.489Z,53.50
2022-11-07T02:59:17.412Z,58.75
2022-11-07T03:01:44.718Z,59.92
2022-11-07T03:04:11.781Z,59.47
2022-11-07T03:06:38.709Z,53.80
2022-11-07T03:09:05.693Z,60.95
2022-11-07T03:11:32.903Z,49.58
2022-11-07T03:13:59.852Z,59.47
2022-11-07T03:16:26.839Z,55.63
2022-11-07T03:18:53.801Z,72.95
2022-11-07T03:21:20.778Z,61.78
2022-11-07T03:23:47.769Z,56.40
2022-11-07T03:26:15.819Z,67.43
2022-11-07T03:28:42.738Z,59.42
2022-11-07T03:31:09.840Z,70.32
2022-11-07T03:33:37.773Z,63.30
2022-11-07T03:36:05.264Z,67.53
2022-11-07T03:38:32.320Z,76.97
2022-11-07T03:40:59.300Z,59.42
2022-11-07T03:43:26.275Z,61.75
2022-11-07T03:45:53.200Z,69.30
2022-11-07T03:48:20.230Z,62.22
2022-11-07T03:50:47.198Z,69.22
2022-11-07T03:53:14.296Z,59.65
2022-11-07T03:55:43.376Z,59.63
2022-11-07T03:58:10.347Z,75.15
2022-11-07T04:00:37.275Z,71.65
2022-11-07T04:03:04.816Z,65.72
2022-11-07T04:05:31.836Z,65.20
2022-11-07T04:07:58.741Z,89.15
2022-11-07T04:10:25.599Z,94.55
2022-11-07T04:13:12.366Z,72.65
2022-11-07T04:15:59.097Z,70.03
2022-11-07T04:18:27.004Z,85.80
2022-11-07T04:20:53.961Z,86.88
2022-11-07T04:23:21.257Z,94.65
2022-11-07T04:26:06.654Z,87.85
2022-11-07T04:28:33.563Z,67.20
2022-11-07T04:31:00.995Z,90.85
2022-11-07T04:33:27.980Z,96.45
2022-11-07T04:35:54.977Z,102.18
2022-11-07T04:38:22.081Z,88.63
2022-11-07T04:40:56.253Z,105.15
2022-11-07T04:43:25.498Z,77.40
2022-11-07T04:45:53.098Z,73.18
2022-11-07T04:48:20.101Z,72.32
2022-11-07T04:50:47.093Z,76.50
2022-11-07T04:53:16.509Z,92.32
2022-11-07T04:55:44.172Z,85.00
2022-11-07T04:58:11.480Z,76.15
2022-11-07T05:00:38.699Z,90.15
2022-11-07T05:03:05.857Z,94.10
2022-11-07T05:05:32.856Z,87.00
2022-11-07T05:07:59.890Z,100.57
2022-11-07T05:10:28.864Z,93.18
2022-11-07T05:12:56.943Z,82.50
2022-11-07T05:15:24.640Z,95.28
2022-11-07T05:17:51.668Z,93.10
2022-11-07T05:20:32.730Z,95.68
2022-11-07T05:23:22.346Z,93.18
2022-11-07T05:25:50.879Z,83.63
2022-11-07T05:28:30.049Z,81.07
2022-11-07T05:31:03.122Z,89.88
2022-11-07T05:33:30.140Z,89.15
2022-11-07T05:35:57.857Z,72.32
2022-11-07T05:38:25.993Z,91.20
2022-11-07T05:40:52.953Z,80.32
2022-11-07T05:43:19.947Z,84.40
2022-11-07T05:45:46.944Z,77.22
2022-11-07T05:48:14.517Z,78.85
2022-11-07T05:50:42.215Z,98.22
2022-11-07T05:53:09.338Z,78.22
2022-11-07T05:55:36.510Z,80.55
2022-11-07T05:58:12.032Z,94.00
2022-11-07T06:00:40.334Z,89.93
2022-11-07T06:03:08.139Z,85.95
2022-11-07T06:05:35.187Z,80.68
2022-11-07T06:08:02.132Z,74.15
2022-11-07T06:10:29.165Z,82.88
2022-11-07T06:13:00.906Z,74.93
2022-11-07T06:15:29.342Z,85.78
2022-11-07T06:17:56.513Z,82.55
2022-11-07T06:20:23.475Z,79.68
2022-11-07T06:22:50.442Z,84.80
2022-11-07T06:25:17.358Z,84.57
2022-11-07T06:27:44.697Z,78.68
2022-11-07T06:30:12.193Z,68.85
2022-11-07T06:32:44.511Z,72.63
2022-11-07T06:35:13.043Z,70.03
2022-11-07T06:37:40.004Z,68.80
2022-11-07T06:40:07.620Z,77.47
2022-11-07T06:42:34.566Z,65.05
2022-11-07T06:45:01.496Z,75.63
2022-11-07T06:47:28.477Z,65.38
2022-11-07T06:49:55.798Z,75.88
2022-11-07T06:52:22.825Z,73.53
2022-11-07T06:54:49.736Z,63.45
2022-11-07T06:57:16.780Z,69.15
2022-11-07T06:59:47.657Z,75.95
2022-11-07T07:02:37.260Z,73.18
2022-11-07T07:05:05.756Z,80.50
2022-11-07T07:07:35.125Z,63.60
2022-11-07T07:10:02.046Z,75.60
2022-11-07T07:12:28.996Z,57.03
2022-11-07T07:14:55.949Z,62.22
2022-11-07T07:17:23.334Z,63.67
2022-11-07T07:19:50.290Z,75.18
2022-11-07T07:22:17.829Z,67.30
2022-11-07T07:24:45.165Z,61.95
2022-11-07T07:27:12.146Z,62.42
2022-11-07T07:29:39.124Z,59.97
2022-11-07T07:32:06.080Z,70.95
2022-11-07T07:34:32.918Z,73.85
2022-11-07T07:36:59.860Z,59.45
2022-11-07T07:39:28.408Z,64.15
2022-11-07T07:41:55.370Z,57.20
2022-11-07T07:44:22.321Z,57.83
2022-11-07T07:46:49.586Z,63.03
2022-11-07T07:49:16.571Z,59.58
2022-11-07T07:51:43.531Z,53.40
2022-11-07T07:54:14.110Z,61.45
2022-11-07T07:56:41.138Z,56.53
2022-11-07T07:59:08.084Z,56.50
2022-11-07T08:01:35.113Z,49.65
2022-11-07T08:04:02.925Z,48.28
2022-11-07T08:06:30.915Z,50.83
2022-11-07T08:08:57.877Z,57.78
2022-11-07T08:11:24.839Z,52.47
2022-11-07T08:13:51.798Z,55.78
2022-11-07T08:16:19.145Z,52.40
2022-11-07T08:18:46.052Z,52.90
2022-11-07T08:21:13.019Z,46.55
2022-11-07T08:23:39.959Z,52.55
2022-11-07T08:26:07.320Z,46.78
2022-11-07T08:28:36.134Z,44.33
2022-11-07T08:31:09.704Z,43.17
2022-11-07T08:33:37.406Z,49.53
2022-11-07T08:36:06.155Z,39.38
2022-11-07T08:38:35.068Z,45.15
2022-11-07T08:41:02.089Z,44.20
2022-11-07T08:43:29.627Z,40.63
2022-11-07T08:45:57.230Z,41.65
2022-11-07T08:48:24.591Z,43.25
2022-11-07T08:50:55.786Z,40.22
2022-11-07T08:53:24.282Z,38.33
2022-11-07T08:55:51.502Z,40.83
2022-11-07T08:58:19.657Z,40.75
2022-11-07T09:00:46.849Z,40.35
2022-11-07T09:06:01.588Z,40.90
2022-11-07T09:08:28.594Z,37.13
2022-11-07T09:10:55.585Z,38.22
2022-11-07T09:13:22.551Z,40.60
2022-11-07T09:15:51.276Z,37.88
2022-11-07T09:18:19.620Z,42.80
2022-11-07T09:20:46.807Z,38.97
2022-11-07T09:23:14.007Z,37.72
2022-11-07T09:25:41.255Z,40.78
2022-11-07T09:28:08.768Z,38.90
2022-11-07T09:30:35.857Z,39.53
2022-11-07T09:33:02.847Z,43.00
2022-11-07T09:35:29.811Z,39.45
2022-11-07T09:37:57.007Z,40.38
2022-11-07T09:40:24.907Z,37.97
2022-11-07T09:42:54.648Z,35.88
2022-11-07T09:45:21.638Z,38.15
2022-11-07T09:48:01.475Z,33.00
2022-11-07T09:50:42.524Z,35.22
2022-11-07T09:53:30.636Z,31.25
2022-11-07T09:56:04.450Z,31.00
2022-11-07T09:58:38.165Z,36.30
2022-11-07T10:01:10.556Z,33.63
2022-11-07T10:03:39.247Z,31.73
2022-11-07T10:06:32.369Z,34.80
2022-11-07T10:09:17.257Z,33.13
2022-11-07T10:11:54.542Z,29.35
2022-11-07T10:14:49.394Z,29.88
2022-11-07T10:17:28.713Z,28.60
2022-11-07T10:20:45.150Z,28.90
2022-11-07T10:23:24.780Z,26.63
2022-11-07T10:26:20.196Z,26.30
2022-11-07T10:29:18.278Z,25.58
2022-11-07T10:31:55.255Z,25.55
2022-11-07T10:34:31.885Z,25.92
2022-11-07T10:36:58.827Z,22.67
2022-11-07T10:39:25.939Z,26.40
2022-11-07T10:42:04.386Z,21.75
2022-11-07T10:44:32.265Z,24.10
2022-11-07T10:46:59.252Z,23.20
2022-11-07T10:49:32.257Z,23.67
2022-11-07T10:52:17.137Z,23.25
2022-11-07T10:54:45.343Z,25.67
2022-11-07T10:57:17.020Z,24.27
2022-11-07T10:59:52.774Z,24.20
2022-11-07T11:02:46.296Z,21.45
2022-11-07T11:05:43.628Z,24.60
2022-11-07T11:08:18.658Z,22.33
2022-11-07T11:10:47.165Z,26.65
2022-11-07T11:13:28.640Z,24.00
2022-11-07T11:16:08.724Z,20.52
2022-11-07T11:18:37.084Z,21.92
2022-11-07T11:21:06.345Z,22.48
2022-11-07T11:23:37.538Z,23.45
2022-11-07T11:26:14.488Z,24.55
2022-11-07T11:29:06.371Z,23.10
2022-11-07T11:31:37.522Z,24.30
2022-11-07T11:34:15.949Z,17.95
2022-11-07T11:36:51.903Z,23.50
2022-11-07T11:39:29.915Z,21.45
2022-11-07T11:42:00.741Z,23.88
2022-11-07T11:47:16.745Z,25.35
2022-11-07T11:50:01.131Z,24.45
2022-11-07T11:52:32.078Z,23.90
2022-11-07T11:55:00.773Z,21.90
2022-11-07T11:57:49.193Z,19.08
2022-11-07T12:00:19.228Z,19.35
2022-11-07T12:02:55.176Z,18.77
2022-11-07T12:05:46.699Z,17.30
2022-11-07T12:08:16.366Z,19.23
2022-11-07T12:11:14.368Z,19.98
2022-11-07T12:14:02.815Z,16.58
2022-11-07T12:16:55.642Z,15.85
2022-11-07T12:19:48.818Z,17.75
2022-11-07T12:22:45.295Z,19.20
2022-11-07T12:25:39.163Z,16.33
2022-11-07T12:28:21.309Z,15.85
2022-11-07T12:30:57.716Z,16.33
2022-11-07T12:33:48.052Z,17.83
2022-11-07T12:36:35.107Z,16.95
2022-11-07T12:39:28.266Z,14.90
2022-11-07T12:42:05.845Z,15.77
2022-11-07T12:44:44.964Z,16.10
2022-11-07T12:47:27.244Z,17.25
2022-11-07T12:50:14.438Z,17.30
2022-11-07T12:52:41.363Z,17.80
2022-11-07T12:55:23.927Z,15.90
2022-11-07T12:57:54.811Z,16.48
2022-11-07T13:03:17.981Z,15.02
2022-11-07T13:06:06.518Z,14.52
2022-11-07T13:08:45.685Z,13.48
2022-11-07T13:11:26.182Z,20.02
2022-11-07T13:14:09.616Z,14.63
2022-11-07T13:16:37.724Z,13.77
2022-11-07T13:19:21.473Z,14.88
2022-11-07T13:22:03.094Z,14.57
2022-11-07T13:24:31.604Z,13.80
2022-11-07T13:27:00.006Z,14.82
2022-11-07T13:29:36.065Z,18.05
2022-11-07T13:32:12.411Z,13.75
2022-11-07T13:34:49.522Z,16.25
2022-11-07T13:37:32.730Z,14.52
2022-11-07T13:40:11.637Z,14.18
2022-11-07T13:42:41.862Z,13.55
2022-11-07T13:45:32.359Z,14.43
2022-11-07T13:48:03.739Z,16.30
2022-11-07T13:50:40.861Z,15.02
2022-11-07T13:53:30.957Z,18.02
2022-11-07T13:56:03.970Z,15.40
2022-11-07T13:58:34.818Z,13.98
2022-11-07T14:01:10.754Z,24.17
2022-11-07T14:03:38.461Z,21.13
2022-11-07T14:06:06.603Z,12.82
2022-11-07T14:08:40.332Z,14.20
2022-11-07T14:11:23.477Z,15.85
2022-11-07T14:13:55.142Z,13.52
2022-11-07T14:16:27.655Z,17.38
2022-11-07T14:19:01.644Z,15.52
2022-11-07T14:21:32.819Z,15.95
2022-11-07T14:24:00.158Z,15.13
2022-11-07T14:26:34.408Z,18.23
2022-11-07T14:29:03.151Z,16.70
2022-11-07T14:31:38.376Z,17.83
2022-11-07T14:34:14.305Z,13.38
2022-11-07T14:36:52.920Z,14.60
2022-11-07T14:39:22.829Z,18.45
2022-11-07T14:41:51.200Z,25.53
2022-11-07T14:44:28.521Z,29.40
2022-11-07T14:47:04.017Z,19.80
2022-11-07T14:49:41.875Z,16.83
2022-11-07T14:52:28.046Z,14.20
2022-11-07T14:55:07.101Z,16.45
2022-11-07T14:57:37.186Z,19.50
2022-11-07T15:00:17.614Z,17.37
2022-11-07T15:02:47.642Z,21.40
2022-11-07T15:05:36.139Z,19.55
2022-11-07T15:08:03.130Z,22.20
2022-11-07T15:10:36.395Z,16.88
2022-11-07T15:13:06.347Z,19.85
2022-11-07T15:15:36.246Z,18.53
2022-11-07T15:18:07.779Z,18.90
2022-11-07T15:20:38.521Z,18.60
2022-11-07T15:23:14.641Z,16.33
2022-11-07T15:25:52.498Z,16.08
2022-11-07T15:28:28.440Z,19.05
2022-11-07T15:30:58.333Z,18.38
2022-11-07T15:33:27.062Z,18.67
2022-11-07T15:35:57.875Z,18.55
2022-11-07T15:40:53.819Z,18.45
2022-11-07T15:43:21.428Z,17.90
2022-11-07T15:45:51.289Z,18.05
2022-11-07T15:48:21.157Z,24.27
2022-11-07T15:50:50.140Z,21.95
2022-11-07T15:53:26.361Z,23.83
2022-11-07T15:56:01.717Z,34.42
2022-11-07T15:58:30.485Z,25.13
2022-11-07T16:00:59.075Z,18.02
2022-11-07T16:03:27.641Z,19.33
2022-11-07T16:05:58.545Z,16.83
2022-11-07T16:08:25.960Z,16.30
2022-11-07T16:11:01.808Z,19.65
2022-11-07T16:13:29.335Z,18.95
2022-11-07T16:15:59.874Z,21.00
2022-11-07T16:18:27.768Z,22.88
2022-11-07T16:20:54.707Z,24.38
2022-11-07T16:23:22.063Z,37.95
2022-11-07T16:25:51.366Z,33.28
2022-11-07T16:28:21.305Z,24.50
2022-11-07T16:30:48.269Z,18.80
2022-11-07T16:33:15.216Z,17.85
2022-11-07T16:35:43.387Z,19.20
2022-11-07T16:38:16.069Z,18.95
2022-11-07T16:40:43.987Z,23.42
2022-11-07T16:43:10.968Z,34.22
2022-11-07T16:45:43.802Z,22.92
2022-11-07T16:48:20.737Z,16.13
2022-11-07T16:50:48.150Z,18.55
2022-11-07T16:53:15.889Z,22.17
2022-11-07T16:55:50.788Z,23.13
2022-11-07T16:58:39.429Z,18.77
2022-11-07T17:01:06.815Z,23.67
2022-11-07T17:03:34.232Z,20.67
2022-11-07T17:06:02.879Z,23.55
2022-11-07T17:08:41.528Z,22.73
2022-11-07T17:11:08.829Z,24.10
2022-11-07T17:13:35.760Z,22.85
2022-11-07T17:16:02.767Z,22.70
2022-11-07T17:18:29.674Z,24.73
2022-11-07T17:20:57.253Z,23.58
2022-11-07T17:23:29.862Z,17.20
2022-11-07T17:26:00.497Z,18.73
2022-11-07T17:28:27.428Z,14.23
2022-11-07T17:30:54.340Z,15.68
2022-11-07T17:33:21.399Z,16.05
2022-11-07T17:35:54.128Z,19.40
2022-11-07T17:38:21.252Z,20.35
2022-11-07T17:40:48.343Z,32.35
2022-11-07T17:43:15.290Z,28.02
2022-11-07T17:45:42.451Z,23.67
2022-11-07T17:48:10.933Z,23.25
2022-11-07T17:50:38.469Z,23.42
2022-11-07T17:53:05.902Z,21.95
2022-11-07T17:55:32.847Z,19.02
2022-11-07T17:57:59.874Z,20.92
2022-11-07T18:00:28.074Z,20.15
2022-11-07T18:02:55.462Z,17.65
2022-11-07T18:05:26.437Z,20.92
2022-11-07T18:07:55.795Z,18.58
2022-11-07T18:10:22.725Z,19.77
2022-11-07T18:12:49.809Z,18.65
2022-11-07T18:15:17.000Z,18.90
2022-11-07T18:17:44.363Z,20.30
2022-11-07T18:20:11.954Z,18.02
2022-11-07T18:22:40.699Z,16.70
2022-11-07T18:25:09.242Z,19.45
2022-11-07T18:27:36.770Z,18.40
2022-11-07T18:30:05.720Z,17.48
2022-11-07T18:32:36.208Z,15.57
2022-11-07T18:35:05.180Z,16.80
2022-11-07T18:37:32.534Z,16.88
2022-11-07T18:39:59.453Z,15.73
2022-11-07T18:42:26.397Z,14.13
2022-11-07T18:44:53.483Z,13.52
2022-11-07T18:47:21.174Z,16.42
2022-11-07T18:49:51.495Z,18.65
2022-11-07T18:52:21.205Z,19.70
2022-11-07T18:54:48.117Z,19.60
2022-11-07T18:57:17.036Z,17.83
2022-11-07T18:59:44.085Z,20.58
2022-11-07T19:02:11.183Z,21.00
2022-11-07T19:04:38.215Z,18.98
2022-11-07T19:07:05.151Z,20.63
2022-11-07T19:09:33.711Z,18.58
2022-11-07T19:12:01.537Z,19.60
2022-11-07T19:14:30.161Z,18.85
2022-11-07T19:16:57.889Z,19.85
2022-11-07T19:19:25.312Z,19.35
2022-11-07T19:21:52.656Z,21.58
2022-11-07T19:24:19.926Z,21.90
2022-11-07T19:26:47.378Z,18.85
2022-11-07T19:29:14.336Z,23.05
2022-11-07T19:31:41.290Z,18.00
2022-11-07T19:34:08.422Z,19.02
2022-11-07T19:36:37.320Z,20.98
2022-11-07T19:39:04.803Z,17.40
2022-11-07T19:41:31.781Z,18.35
2022-11-07T19:44:02.010Z,22.02
2022-11-07T19:46:28.997Z,23.75
2022-11-07T19:48:56.697Z,23.13
2022-11-07T19:51:24.500Z,31.48
2022-11-07T19:53:59.490Z,31.80
2022-11-07T19:56:28.593Z,36.22
2022-11-07T19:58:55.776Z,31.17
2022-11-07T20:01:27.162Z,29.80
2022-11-07T20:03:55.752Z,33.63
2022-11-07T20:06:28.877Z,32.53
2022-11-07T20:08:55.853Z,25.67
2022-11-07T20:11:25.250Z,22.92
2022-11-07T20:13:54.742Z,22.98
2022-11-07T20:16:23.717Z,23.15
2022-11-07T20:18:51.177Z,25.33
2022-11-07T20:21:21.963Z,23.50
2022-11-07T20:26:20.082Z,24.05
2022-11-07T20:28:49.851Z,22.77
2022-11-07T20:31:23.041Z,25.50
2022-11-07T20:33:50.234Z,28.02
2022-11-07T20:36:18.557Z,27.33
2022-11-07T20:38:46.187Z,32.90
2022-11-07T20:41:13.924Z,25.30
2022-11-07T20:43:41.418Z,30.17
2022-11-07T20:46:15.308Z,28.02
2022-11-07T20:48:43.247Z,25.63
2022-11-07T20:51:15.095Z,26.83
2022-11-07T20:53:49.502Z,25.65
2022-11-07T20:56:18.215Z,26.08
2022-11-07T20:58:45.654Z,24.10
2022-11-07T21:01:21.600Z,26.35
2022-11-07T21:03:49.087Z,23.45
2022-11-07T21:06:16.738Z,22.90
2022-11-07T21:08:46.868Z,27.42
2022-11-07T21:11:15.011Z,37.40
2022-11-07T21:13:46.601Z,40.72
2022-11-07T21:16:18.944Z,51.75
2022-11-07T21:18:45.927Z,55.67
2022-11-07T21:21:19.075Z,63.00
2022-11-07T21:23:47.121Z,52.30
2022-11-07T21:26:22.660Z,43.47
2022-11-07T21:28:50.590Z,43.13
2022-11-07T21:31:24.001Z,49.97
2022-11-07T21:33:52.219Z,38.47
2022-11-07T21:36:22.084Z,34.25
2022-11-07T21:38:49.245Z,31.65
2022-11-07T21:41:17.171Z,38.13
2022-11-07T21:43:44.442Z,40.65
2022-11-07T21:46:18.014Z,37.88
2022-11-07T21:48:46.271Z,37.40
2022-11-07T21:51:19.722Z,40.03
2022-11-07T21:53:48.531Z,37.15
2022-11-07T21:56:25.452Z,32.63
2022-11-07T21:58:54.821Z,33.67
2022-11-07T22:01:22.539Z,33.65
2022-11-07T22:04:06.195Z,34.70
2022-11-07T22:06:37.410Z,31.13
2022-11-07T22:09:06.492Z,35.83
2022-11-07T22:11:33.674Z,35.38
2022-11-07T22:14:01.124Z,33.28
2022-11-07T22:16:28.242Z,32.67
2022-11-07T22:18:55.471Z,29.65
2022-11-07T22:21:23.605Z,32.28
2022-11-07T22:23:51.400Z,36.40
2022-11-07T22:26:27.048Z,30.95
2022-11-07T22:28:54.757Z,28.05
2022-11-07T22:31:32.647Z,26.80
2022-11-07T22:34:01.110Z,24.50
2022-11-07T22:36:29.109Z,23.17
2022-11-07T22:38:58.153Z,21.95
2022-11-07T22:41:27.432Z,25.05
2022-11-07T22:43:55.372Z,25.80
2022-11-07T22:46:24.857Z,23.98
2022-11-07T22:48:52.812Z,21.95
2022-11-07T22:51:25.274Z,25.33
2022-11-07T22:54:03.047Z,25.42
2022-11-07T22:56:30.907Z,27.42
2022-11-07T22:58:57.992Z,27.10
2022-11-07T23:01:34.441Z,29.00
2022-11-07T23:04:02.052Z,25.50
2022-11-07T23:06:30.267Z,22.13
2022-11-07T23:08:58.362Z,22.85
2022-11-07T23:11:48.277Z,23.67
2022-11-07T23:14:20.952Z,24.98
2022-11-07T23:16:50.264Z,22.52
2022-11-07T23:19:20.024Z,24.58
2022-11-07T23:21:47.270Z,23.35
2022-11-07T23:24:14.569Z,25.25
2022-11-07T23:26:41.881Z,22.00
2022-11-07T23:29:20.796Z,19.55
2022-11-07T23:31:50.077Z,22.25
2022-11-07T23:34:18.448Z,25.83
2022-11-07T23:36:50.143Z,19.40
2022-11-07T23:39:20.551Z,21.25
2022-11-07T23:41:47.684Z,22.50
2022-11-07T23:44:15.976Z,23.13
2022-11-07T23:47:01.779Z,23.20
2022-11-07T23:49:54.964Z,22.58
2022-11-07T23:52:22.138Z,23.75
2022-11-07T23:55:07.904Z,21.50
2022-11-07T23:57:56.557Z,21.85
